Time;durP1;ratioP1;P1;durP2;ratioP2;P2;SDS_P1;SDS_P2;PMS_P1;PMS_P2;Temp;Humidity;BMP_temperature;BMP_pressure;BME280_temperature;BME280_humidity;BME280_pressure;Samples;Min_cycle;Max_cycle;Signal;HPM_P1;HPM_P2
2022/06/12 00:01:02;;;;;;;18.08;11.32;;;;;;;19.21;67.00;99824.81;5033187;28;20060;-78
2022/06/12 00:03:32;;;;;;;20.20;13.10;;;;;;;19.13;67.35;99825.97;5034200;28;20049;-78
2022/06/12 00:06:01;;;;;;;17.80;11.48;;;;;;;19.01;67.16;99816.63;5034244;28;20049;-79
2022/06/12 00:08:31;;;;;;;19.87;13.13;;;;;;;19.08;67.99;99839.34;5032759;28;20081;-79
2022/06/12 00:10:59;;;;;;;19.52;13.82;;;;;;;19.11;68.56;99830.44;5034027;28;20065;-79
2022/06/12 00:13:33;;;;;;;21.17;14.40;;;;;;;19.11;68.53;99838.38;5033786;28;20136;-79
2022/06/12 00:16:02;;;;;;;21.90;14.25;;;;;;;19.02;69.08;99829.81;5032865;28;20071;-79
2022/06/12 00:18:29;;;;;;;25.20;15.73;;;;;;;18.97;69.52;99839.69;5032310;28;20484;-79
2022/06/12 00:21:12;;;;;;;25.63;18.48;;;;;;;18.86;69.89;99833.84;5033874;28;20065;-79
2022/06/12 00:23:57;;;;;;;45.75;29.73;;;;;;;18.79;69.91;99832.31;5034658;28;20132;-80
2022/06/12 00:26:37;;;;;;;39.50;25.65;;;;;;;18.74;70.24;99829.78;5033828;28;20060;-81
2022/06/12 00:29:20;;;;;;;;;;;;;;;18.54;69.77;99821.56;5034367;28;20144;-79
2022/06/12 00:31:52;;;;;;;36.15;26.05;;;;;;;18.70;70.48;99825.50;5034205;28;19924;-80
2022/06/12 00:34:23;;;;;;;34.55;25.73;;;;;;;18.76;70.30;99824.44;5033892;28;20049;-81
2022/06/12 00:36:50;;;;;;;42.50;28.08;;;;;;;18.78;70.20;99812.94;5032328;28;20057;-80
2022/06/12 00:39:17;;;;;;;51.40;36.47;;;;;;;18.87;69.94;99832.94;5033274;28;20079;-80
2022/06/12 00:41:47;;;;;;;57.25;41.42;;;;;;;18.83;69.81;99816.28;5032189;28;20060;-80
2022/06/12 00:44:17;;;;;;;55.75;41.10;;;;;;;18.87;69.63;99826.81;5033286;28;20053;-80
2022/06/12 00:47:00;;;;;;;45.92;32.17;;;;;;;18.82;69.48;99818.97;5033503;28;20049;-80
2022/06/12 00:49:59;;;;;;;33.85;23.27;;;;;;;18.64;69.67;99796.56;5032899;28;20521;-80
2022/06/12 00:52:28;;;;;;;23.42;16.35;;;;;;;18.65;69.81;99821.25;5033435;28;20057;-80
2022/06/12 00:55:01;;;;;;;28.77;18.33;;;;;;;18.50;70.33;99822.56;5033124;28;20053;-80
2022/06/12 00:57:29;;;;;;;23.38;15.88;;;;;;;18.33;70.13;99820.44;5033093;28;20061;-80
2022/06/12 01:00:00;;;;;;;24.52;17.42;;;;;;;18.14;71.00;99820.09;5032912;28;20489;-80
2022/06/12 01:02:32;;;;;;;26.65;18.00;;;;;;;18.08;71.69;99823.78;5033093;28;20578;-81
2022/06/12 01:07:54;;;;;;;25.23;15.77;;;;;;;18.09;70.67;99833.47;5033431;28;20091;-80
2022/06/12 01:10:23;;;;;;;26.20;16.73;;;;;;;18.21;71.00;99835.72;5032750;28;20061;-79
2022/06/12 01:12:54;;;;;;;26.75;17.70;;;;;;;18.41;70.93;99837.81;5033217;28;20509;-80
2022/06/12 01:15:29;;;;;;;23.52;16.65;;;;;;;18.56;70.65;99833.88;5033002;28;20045;-79
2022/06/12 01:17:58;;;;;;;22.25;16.80;;;;;;;18.61;70.48;99834.56;5031922;28;20481;-81
2022/06/12 01:20:31;;;;;;;26.13;15.52;;;;;;;18.73;70.32;99837.75;5032875;28;20057;-81
2022/06/12 01:23:34;;;;;;;24.40;16.50;;;;;;;18.88;70.13;99842.59;5033127;28;20054;-80
2022/06/12 01:26:25;;;;;;;26.15;17.38;;;;;;;19.00;70.16;99833.44;5032971;28;20060;-80
2022/06/12 01:29:08;;;;;;;23.92;17.50;;;;;;;19.12;69.87;99842.75;5033238;28;20095;-80
2022/06/12 01:31:41;;;;;;;23.80;16.45;;;;;;;19.22;69.43;99841.53;5033175;28;20139;-80
2022/06/12 01:34:22;;;;;;;24.40;17.17;;;;;;;19.23;68.88;99840.66;5033045;28;20053;-81
2022/06/12 01:36:56;;;;;;;25.60;16.67;;;;;;;19.24;68.57;99829.97;5033146;28;20144;-80
2022/06/12 01:39:37;;;;;;;30.45;19.10;;;;;;;19.41;67.66;99841.81;5033028;28;20084;-81
2022/06/12 01:42:19;;;;;;;28.23;20.05;;;;;;;19.40;66.78;99840.06;5033254;28;20057;-79
2022/06/12 01:44:57;;;;;;;30.60;20.15;;;;;;;19.53;66.39;99844.06;5033803;28;20556;-79
2022/06/12 01:47:36;;;;;;;31.30;21.08;;;;;;;19.56;65.79;99837.78;5039764;28;20029;-79
2022/06/12 01:50:13;;;;;;;29.77;19.48;;;;;;;19.64;65.93;99839.25;5054916;28;20141;-80
2022/06/12 01:53:10;;;;;;;26.63;19.60;;;;;;;19.95;65.39;99847.94;5056127;28;20056;-80
2022/06/12 01:55:51;;;;;;;24.95;19.08;;;;;;;20.35;63.69;99839.41;5047214;28;20490;-79
2022/06/12 01:58:37;;;;;;;28.95;19.80;;;;;;;21.03;61.75;99815.59;5034680;28;20053;-80
2022/06/12 02:01:22;;;;;;;27.35;19.30;;;;;;;22.42;57.90;99830.03;5033923;28;20402;-80
2022/06/12 02:03:58;;;;;;;24.73;17.73;;;;;;;24.17;53.68;99833.88;5036315;28;20045;-80
2022/06/12 02:06:33;;;;;;;23.13;18.00;;;;;;;25.93;49.02;99825.69;5035132;28;20057;-79
2022/06/12 02:09:19;;;;;;;25.73;18.35;;;;;;;26.88;47.04;99829.59;5035977;28;20448;-79
2022/06/12 02:14:49;;;;;;;25.63;19.02;;;;;;;28.71;41.63;99816.28;5036248;28;20053;-80
2022/06/12 02:17:23;;;;;;;28.05;19.73;;;;;;;30.14;38.05;99821.66;5035978;28;20140;-79
2022/06/12 02:19:52;;;;;;;27.65;19.42;;;;;;;30.44;37.14;99828.28;5036484;28;20049;-81
2022/06/12 02:22:26;;;;;;;23.85;19.48;;;;;;;29.17;38.90;99812.91;5035875;28;20057;-81
2022/06/12 02:24:57;;;;;;;27.52;18.52;;;;;;;28.60;40.36;99825.09;5036393;28;20079;-80
2022/06/12 02:27:40;;;;;;;23.75;18.00;;;;;;;29.95;38.42;99812.31;5035475;28;20482;-80
2022/06/12 02:30:23;;;;;;;23.60;18.05;;;;;;;31.74;35.61;99832.91;5035947;28;20055;-81
2022/06/12 02:33:00;;;;;;;23.00;17.48;;;;;;;33.65;32.06;99805.94;5035873;28;20053;-81
2022/06/12 02:35:56;;;;;;;23.17;16.92;;;;;;;35.11;30.64;99831.63;5035572;28;20053;-81
2022/06/12 02:38:30;;;;;;;24.60;15.85;;;;;;;35.95;28.06;99836.66;5034585;28;20049;-83
2022/06/12 02:41:03;;;;;;;22.05;16.63;;;;;;;36.74;26.91;99826.59;5036171;28;20489;-82
2022/06/12 02:43:33;;;;;;;21.13;15.68;;;;;;;37.04;26.01;99803.38;5035956;28;20053;-81
2022/06/12 02:46:18;;;;;;;19.50;13.43;;;;;;;35.15;27.69;99827.63;5035858;28;20144;-81
2022/06/12 02:48:46;;;;;;;18.65;13.27;;;;;;;33.52;29.93;99825.16;5035984;28;20052;-82
2022/06/12 02:51:13;;;;;;;15.68;12.15;;;;;;;31.65;32.36;99831.00;5035519;28;20049;-82
2022/06/12 02:53:58;;;;;;;15.52;11.82;;;;;;;30.55;34.21;99829.16;5035928;28;20053;-80
2022/06/12 02:56:32;;;;;;;14.57;12.13;;;;;;;29.09;36.60;99829.63;5035309;28;20094;-80
2022/06/12 02:59:15;;;;;;;15.85;12.23;;;;;;;27.98;38.46;99807.97;5035628;28;20076;-80
2022/06/12 03:02:01;;;;;;;16.98;12.13;;;;;;;27.32;39.89;99841.09;5035328;28;20061;-80
2022/06/12 03:05:01;;;;;;;14.30;11.25;;;;;;;26.81;40.86;99814.88;5035299;28;20057;-81
2022/06/12 03:07:31;;;;;;;14.85;11.43;;;;;;;26.82;41.30;99832.66;5034586;28;20144;-81
2022/06/12 03:10:06;;;;;;;17.35;12.43;;;;;;;26.76;41.56;99831.25;5035438;28;20057;-81
2022/06/12 03:12:33;;;;;;;16.35;12.75;;;;;;;26.85;41.57;99843.22;5035162;28;20119;-81
2022/06/12 03:15:01;;;;;;;19.35;13.45;;;;;;;27.06;41.51;99838.28;5035331;28;20489;-80
2022/06/12 03:17:29;;;;;;;18.15;13.20;;;;;;;27.66;40.06;99837.00;5034881;28;20521;-80
2022/06/12 03:19:57;;;;;;;14.45;12.10;;;;;;;27.69;39.77;99830.56;5035064;28;20056;-80
2022/06/12 03:22:43;;;;;;;20.23;13.13;;;;;;;27.65;40.04;99837.09;5034812;28;20517;-79
2022/06/12 03:25:25;;;;;;;15.98;11.98;;;;;;;27.91;39.77;99835.34;5034868;28;20176;-81
2022/06/12 03:28:14;;;;;;;17.88;12.82;;;;;;;28.67;38.50;99841.66;5034862;28;20516;-80
2022/06/12 03:30:52;;;;;;;15.02;11.20;;;;;;;32.30;32.41;99840.63;5034582;28;20095;-80
2022/06/12 03:34:05;;;;;;;15.82;11.07;;;;;;;33.55;30.18;99841.13;5034355;28;20469;-80
2022/06/12 03:36:37;;;;;;;15.45;10.13;;;;;;;31.98;31.97;99848.84;5034211;28;20507;-80
2022/06/12 03:39:05;;;;;;;11.48;9.30;;;;;;;30.65;33.94;99842.72;5034773;28;20107;-80
2022/06/12 03:41:52;;;;;;;12.85;9.65;;;;;;;30.55;33.93;99842.63;5034083;28;20156;-81
2022/06/12 03:44:41;;;;;;;12.40;9.65;;;;;;;30.20;34.73;99840.00;5034575;28;20053;-79
2022/06/12 03:47:18;;;;;;;10.60;8.65;;;;;;;29.63;35.09;99839.00;5034861;28;20053;-80
2022/06/12 03:50:25;;;;;;;10.65;7.57;;;;;;;29.33;35.67;99848.44;5034794;28;20525;-80
2022/06/12 03:52:51;;;;;;;13.77;8.60;;;;;;;29.26;35.87;99849.88;5034530;28;20076;-80
2022/06/12 03:58:24;;;;;;;11.20;7.97;;;;;;;28.72;36.55;99850.25;5034337;28;20053;-79
2022/06/12 04:00:52;;;;;;;12.13;6.95;;;;;;;28.44;36.31;99846.81;5033066;28;20057;-81
2022/06/12 04:03:31;;;;;;;8.82;7.40;;;;;;;29.73;34.83;99841.91;5033968;28;20459;-80
2022/06/12 04:06:05;;;;;;;9.70;7.20;;;;;;;32.40;30.58;99840.69;5034542;28;20060;-80
2022/06/12 04:08:37;;;;;;;8.02;6.22;;;;;;;32.19;30.21;99851.53;5034441;28;20045;-81
2022/06/12 04:11:07;;;;;;;8.18;6.10;;;;;;;32.79;29.13;99847.13;5034137;28;20131;-80
2022/06/12 04:13:40;;;;;;;9.18;6.50;;;;;;;34.92;26.36;99840.78;5032597;28;20160;-81
2022/06/12 04:16:19;;;;;;;6.65;5.22;;;;;;;35.95;24.50;99852.97;5033969;28;20103;-80
2022/06/12 04:18:47;;;;;;;6.00;5.40;;;;;;;35.11;25.28;99835.22;5034148;28;20064;-81
2022/06/12 04:21:23;;;;;;;6.53;5.55;;;;;;;33.21;27.72;99844.25;5033925;28;20057;-81
2022/06/12 04:24:03;;;;;;;6.20;5.60;;;;;;;31.41;30.20;99837.44;5033159;28;20456;-81
2022/06/12 04:26:36;;;;;;;7.60;5.05;;;;;;;30.00;32.18;99852.34;5033634;28;20049;-81
2022/06/12 04:29:21;;;;;;;8.27;5.65;;;;;;;29.17;33.85;99846.03;5033641;28;20053;-80
2022/06/12 04:31:50;;;;;;;8.40;5.85;;;;;;;29.16;33.90;99852.38;5033861;28;20116;-80
2022/06/12 04:34:25;;;;;;;5.50;4.40;;;;;;;28.78;34.60;99852.47;5032411;28;20586;-80
2022/06/12 04:36:56;;;;;;;6.53;4.90;;;;;;;28.36;35.07;99836.63;5033617;28;20159;-80
2022/06/12 04:39:26;;;;;;;5.97;5.35;;;;;;;28.55;34.74;99848.78;5031935;28;20476;-80
2022/06/12 04:41:54;;;;;;;5.97;4.90;;;;;;;28.73;34.72;99852.81;5033705;28;20061;-80
2022/06/12 04:44:22;;;;;;;6.25;4.97;;;;;;;28.59;35.38;99851.13;5033439;28;20075;-80
2022/06/12 04:46:52;;;;;;;7.60;5.65;;;;;;;28.67;35.01;99852.38;5032402;28;20053;-80
2022/06/12 04:49:25;;;;;;;12.20;5.95;;;;;;;28.56;35.65;99847.78;5033156;28;20053;-79
2022/06/12 04:51:55;;;;;;;5.93;5.28;;;;;;;27.68;37.09;99858.34;5033636;28;20144;-79
2022/06/12 04:54:24;;;;;;;9.45;5.50;;;;;;;27.42;37.92;99855.59;5033538;28;20140;-79
2022/06/12 04:56:51;;;;;;;7.55;5.05;;;;;;;27.01;38.42;99826.97;5033014;28;20144;-79
2022/06/12 04:59:20;;;;;;;5.55;4.97;;;;;;;26.81;39.29;99846.19;5033249;28;20057;-81
2022/06/12 05:01:49;;;;;;;9.35;5.72;;;;;;;26.50;39.75;99826.66;5033041;28;20042;-82
2022/06/12 05:04:17;;;;;;;6.43;4.82;;;;;;;26.47;40.61;99845.63;5033041;28;20060;-80
2022/06/12 05:06:46;;;;;;;5.40;4.70;;;;;;;26.76;39.79;99849.16;5032791;28;20049;-79
2022/06/12 05:09:14;;;;;;;6.10;5.07;;;;;;;26.50;39.98;99851.66;5032618;28;20053;-80
2022/06/12 05:11:42;;;;;;;9.82;5.50;;;;;;;26.35;39.71;99847.25;5032609;28;20065;-80
2022/06/12 05:14:10;;;;;;;7.78;5.10;;;;;;;26.23;40.53;99838.16;5032156;28;20054;-80
2022/06/12 05:16:39;;;;;;;5.50;5.00;;;;;;;26.40;40.30;99858.53;5032701;28;20057;-79
2022/06/12 05:19:10;;;;;;;7.28;5.70;;;;;;;26.47;40.06;99854.50;5032874;28;20045;-80
2022/06/12 05:21:37;;;;;;;6.93;5.55;;;;;;;26.30;40.37;99849.34;5032842;28;20107;-81
2022/06/12 05:24:05;;;;;;;7.00;5.68;;;;;;;26.34;40.48;99862.44;5033242;28;20118;-82
2022/06/12 05:26:35;;;;;;;6.32;4.68;;;;;;;26.08;40.75;99866.72;5032671;28;20497;-80
2022/06/12 05:29:08;;;;;;;7.45;4.93;;;;;;;25.85;41.76;99846.66;5032881;28;20059;-80
2022/06/12 05:31:35;;;;;;;6.18;5.47;;;;;;;26.07;40.75;99865.03;5032850;28;20061;-80
2022/06/12 05:34:03;;;;;;;5.43;4.93;;;;;;;26.18;40.70;99853.66;5032979;28;20068;-80
2022/06/12 05:36:30;;;;;;;7.90;5.00;;;;;;;26.55;40.22;99851.34;5036727;28;20425;-80
2022/06/12 05:38:57;;;;;;;6.30;5.28;;;;;;;26.72;39.98;99836.94;5051911;28;20061;-79
2022/06/12 05:41:24;;;;;;;5.00;4.57;;;;;;;26.92;39.56;99844.53;5057988;28;20049;-79
2022/06/12 05:43:51;;;;;;;7.53;4.95;;;;;;;26.73;39.03;99852.88;5060810;28;20038;-80
2022/06/12 05:46:18;;;;;;;5.43;4.32;;;;;;;26.58;38.77;99855.69;5054928;28;20064;-79
2022/06/12 05:48:45;;;;;;;5.13;4.50;;;;;;;26.59;38.93;99852.03;5048194;28;20057;-80
2022/06/12 05:51:15;;;;;;;4.40;4.00;;;;;;;26.69;38.85;99842.47;5038643;28;20053;-79
2022/06/12 05:53:42;;;;;;;6.13;4.43;;;;;;;26.86;38.56;99838.69;5037251;28;20061;-83
2022/06/12 05:56:13;;;;;;;4.75;4.32;;;;;;;27.21;37.74;99855.19;5036282;28;20049;-85
2022/06/12 05:58:41;;;;;;;6.75;4.72;;;;;;;27.11;37.62;99854.91;5036279;28;20554;-83
2022/06/12 06:01:11;;;;;;;5.95;4.38;;;;;;;26.90;38.36;99861.66;5036132;28;20061;-83
2022/06/12 06:03:38;;;;;;;6.03;4.40;;;;;;;26.69;38.79;99853.19;5034587;28;20467;-84
2022/06/12 06:06:07;;;;;;;4.68;4.28;;;;;;;26.47;38.16;99865.22;5035872;28;20057;-83
2022/06/12 06:08:34;;;;;;;5.25;3.95;;;;;;;26.46;38.16;99844.75;5035438;28;20049;-81
2022/06/12 06:11:02;;;;;;;6.80;4.10;;;;;;;27.24;37.13;99854.16;5034526;28;20061;-82
2022/06/12 06:13:29;;;;;;;4.97;4.22;;;;;;;27.85;35.85;99850.03;5036045;28;20111;-87
2022/06/12 06:15:56;;;;;;;4.38;3.97;;;;;;;27.69;35.96;99850.19;5001895;28;20425;-81
2022/06/12 06:18:23;;;;;;;3.97;3.60;;;;;;;27.41;35.68;99829.75;5035906;28;20046;-80
2022/06/12 06:20:51;;;;;;;5.88;4.00;;;;;;;27.02;36.21;99849.28;5035636;28;20448;-82
2022/06/12 06:23:18;;;;;;;6.03;3.88;;;;;;;26.79;36.55;99829.34;5035948;28;20497;-83
2022/06/12 06:25:45;;;;;;;4.50;4.05;;;;;;;26.72;37.44;99837.78;5035588;28;20054;-81
2022/06/12 06:28:13;;;;;;;4.50;3.95;;;;;;;26.65;36.81;99835.56;5031922;28;20054;-81
2022/06/12 06:30:42;;;;;;;4.30;3.90;;;;;;;26.40;37.16;99823.72;5034190;28;20081;-82
2022/06/12 06:33:09;;;;;;;5.45;3.70;;;;;;;26.87;36.14;99853.84;5035487;28;20559;-81
2022/06/12 06:35:37;;;;;;;4.10;3.70;;;;;;;26.64;36.77;99836.53;5035246;28;20057;-83
2022/06/12 06:38:05;;;;;;;4.10;3.70;;;;;;;26.49;36.89;99835.66;5035296;28;20053;-81
2022/06/12 06:40:34;;;;;;;4.67;3.80;;;;;;;26.46;36.92;99830.53;5035476;28;20140;-82
2022/06/12 06:43:06;;;;;;;5.00;3.55;;;;;;;26.34;36.68;99843.69;5035484;28;20057;-83
2022/06/12 06:48:21;;;;;;;3.35;3.10;;;;;;;26.09;36.43;99830.09;5035346;28;20111;-83
2022/06/12 06:50:48;;;;;;;3.60;3.30;;;;;;;25.80;36.20;99815.81;5034670;28;20520;-84
2022/06/12 06:53:16;;;;;;;3.53;3.28;;;;;;;26.09;36.62;99812.25;5035079;28;20140;-82
2022/06/12 06:55:43;;;;;;;3.38;3.08;;;;;;;26.33;35.63;99825.06;5031627;28;20054;-83
2022/06/12 06:58:15;;;;;;;4.13;3.45;;;;;;;26.17;35.97;99822.47;5033025;28;20056;-83
2022/06/12 07:00:44;;;;;;;4.57;3.50;;;;;;;26.18;36.58;99823.31;5032995;28;20053;-83
2022/06/12 07:03:12;;;;;;;4.38;3.40;;;;;;;26.10;36.49;99824.66;5034237;28;20054;-82
2022/06/12 07:05:41;;;;;;;4.57;3.15;;;;;;;26.14;36.47;99820.00;5033505;28;20053;-84
2022/06/12 07:08:09;;;;;;;4.00;3.38;;;;;;;26.31;36.11;99806.41;5031331;28;20054;-82
2022/06/12 07:10:39;;;;;;;4.65;3.22;;;;;;;26.36;35.59;99820.38;5032145;28;20065;-83
2022/06/12 07:13:07;;;;;;;3.72;3.40;;;;;;;26.06;35.54;99814.25;5032767;28;20140;-83
2022/06/12 07:15:39;;;;;;;4.93;3.13;;;;;;;26.42;35.38;99823.63;5029900;28;20053;-82
2022/06/12 07:18:08;;;;;;;7.57;5.18;;;;;;;26.65;35.00;99816.81;5030343;28;20051;-82
2022/06/12 07:20:40;;;;;;;4.18;3.15;;;;;;;27.14;34.54;99810.94;5029369;28;20053;-82
2022/06/12 07:23:08;;;;;;;4.30;3.33;;;;;;;27.43;33.91;99795.63;5028227;28;20130;-81
2022/06/12 07:25:40;;;;;;;6.03;3.38;;;;;;;27.94;33.48;99824.38;5030303;28;20152;-83
2022/06/12 07:28:07;;;;;;;3.50;3.20;;;;;;;27.74;33.14;99804.25;5028938;28;20057;-83
2022/06/12 07:30:35;;;;;;;4.32;3.40;;;;;;;27.68;33.45;99800.16;5031051;28;20521;-82
2022/06/12 07:33:02;;;;;;;3.78;3.42;;;;;;;27.65;33.84;99805.75;5027674;28;20057;-82
2022/06/12 07:35:30;;;;;;;5.57;3.15;;;;;;;27.58;34.01;99812.50;5031306;28;20144;-83
2022/06/12 07:37:57;;;;;;;4.22;3.80;;;;;;;27.42;34.20;99804.63;5027767;28;20076;-83
2022/06/12 07:40:28;;;;;;;4.07;3.40;;;;;;;26.70;35.59;99812.06;5028656;28;20064;-83
2022/06/12 07:42:55;;;;;;;3.78;3.42;;;;;;;26.52;36.18;99785.47;5027957;28;20053;-83
2022/06/12 07:45:23;;;;;;;6.25;3.60;;;;;;;27.02;35.29;99819.78;5027846;28;20057;-82
2022/06/12 07:47:50;;;;;;;3.90;3.47;;;;;;;26.98;35.17;99811.13;5026439;28;20432;-82
2022/06/12 07:50:17;;;;;;;4.47;3.70;;;;;;;27.06;35.33;99803.44;5026534;28;20067;-83
2022/06/12 07:52:44;;;;;;;3.22;3.00;;;;;;;27.58;33.85;99820.56;5025356;28;20072;-81
2022/06/12 07:55:15;;;;;;;4.45;3.78;;;;;;;27.86;33.23;99790.03;5026897;28;20052;-82
2022/06/12 07:57:43;;;;;;;5.00;3.53;;;;;;;28.14;32.97;99788.94;5024317;28;20562;-82
2022/06/12 08:00:13;;;;;;;4.03;3.30;;;;;;;28.14;32.78;99798.84;5026545;28;20069;-81
2022/06/12 08:02:43;;;;;;;3.60;3.30;;;;;;;27.82;33.44;99785.81;5028243;28;20067;-84
2022/06/12 08:05:11;;;;;;;4.43;3.38;;;;;;;27.78;33.24;99773.56;5026607;28;20152;-87
2022/06/12 08:07:38;;;;;;;4.10;3.47;;;;;;;27.92;33.46;99789.59;5029773;28;20131;-84
2022/06/12 08:10:07;;;;;;;5.97;3.72;;;;;;;27.74;32.90;99788.16;5028724;28;20072;-85
2022/06/12 08:12:37;;;;;;;4.93;3.35;;;;;;;27.42;33.84;99791.22;5030695;28;20065;-86
2022/06/12 08:15:07;;;;;;;3.55;3.20;;;;;;;26.88;33.75;99796.59;5030297;28;20056;-83
2022/06/12 08:17:35;;;;;;;4.97;3.50;;;;;;;26.28;35.08;99793.19;5030381;28;20095;-88
2022/06/12 08:22:49;;;;;;;6.80;3.22;;;;;;;25.81;36.01;99778.25;5010608;28;20060;-84
2022/06/12 08:25:16;;;;;;;3.45;3.15;;;;;;;25.77;36.02;99787.44;5029413;28;20053;-84
2022/06/12 08:27:43;;;;;;;3.80;3.45;;;;;;;25.53;36.99;99774.59;5029385;28;20504;-84
2022/06/12 08:30:11;;;;;;;5.35;3.28;;;;;;;25.45;36.77;99797.41;5027453;28;20058;-85
2022/06/12 08:32:41;;;;;;;4.90;3.53;;;;;;;25.37;36.48;99776.44;5030707;28;20041;-84
2022/06/12 08:35:16;;;;;;;5.53;3.38;;;;;;;25.27;36.46;99764.56;5010900;28;20495;-84
2022/06/12 08:37:44;;;;;;;3.80;3.40;;;;;;;25.26;36.40;99781.59;5027538;28;20117;-84
2022/06/12 08:40:32;;;;;;;4.10;3.17;;;;;;;25.14;36.71;99757.28;5027081;28;20482;-84
2022/06/12 08:43:32;;;;;;;5.97;3.10;;;;;;;25.43;36.25;99760.06;5027228;28;20140;-86
2022/06/12 08:46:09;;;;;;;4.80;3.03;;;;;;;25.34;36.44;99772.16;5019695;28;20057;-84
2022/06/12 08:48:49;;;;;;;5.80;3.05;;;;;;;25.61;36.19;99773.25;5027709;28;20418;-85
2022/06/12 08:51:31;;;;;;;3.88;3.58;;;;;;;25.76;35.09;99734.88;5029597;28;20124;-84
2022/06/12 08:54:27;;;;;;;3.10;2.78;;;;;;;26.34;34.33;99779.44;5028559;28;20597;-84
2022/06/12 08:57:06;;;;;;;3.80;3.38;;;;;;;26.44;33.60;99736.88;5027978;28;20646;-82
2022/06/12 08:59:43;;;;;;;3.40;3.10;;;;;;;26.75;33.41;99773.25;5029262;28;20053;-84
2022/06/12 09:02:21;;;;;;;4.80;2.85;;;;;;;26.78;33.47;99772.22;5029702;28;20053;-83
2022/06/12 09:04:58;;;;;;;5.50;2.85;;;;;;;26.76;33.79;99755.41;5027880;28;20062;-83
2022/06/12 09:07:42;;;;;;;4.78;3.75;;;;;;;27.08;33.30;99761.31;5029492;28;20524;-83
2022/06/12 09:10:23;;;;;;;3.25;3.05;;;;;;;27.24;32.67;99763.84;5030688;28;20144;-84
2022/06/12 09:12:55;;;;;;;7.80;3.10;;;;;;;26.75;33.58;99761.69;5029619;28;20084;-86
2022/06/12 09:15:34;;;;;;;5.55;3.60;;;;;;;26.96;32.86;99762.13;5030652;28;20056;-84
2022/06/12 09:18:28;;;;;;;3.42;3.13;;;;;;;27.29;32.42;99742.91;5027893;28;20088;-84
2022/06/12 09:21:14;;;;;;;4.18;3.38;;;;;;;27.51;31.99;99741.44;5029427;28;20051;-84
2022/06/12 09:23:53;;;;;;;3.10;2.80;;;;;;;27.32;32.38;99756.13;5011671;28;20056;-83
2022/06/12 09:26:29;;;;;;;3.42;2.80;;;;;;;27.34;31.89;99767.63;5028003;28;20421;-83
2022/06/12 09:29:05;;;;;;;2.67;2.47;;;;;;;27.06;31.46;99765.03;5029811;28;20137;-83
2022/06/12 09:31:56;;;;;;;3.22;2.60;;;;;;;26.68;32.15;99750.53;5027631;28;20076;-84
2022/06/12 09:34:48;;;;;;;3.33;3.03;;;;;;;26.71;32.17;99749.47;5011966;28;20054;-83
2022/06/12 09:38:37;;;;;;;5.40;3.13;;;;;;;26.30;32.76;99751.13;5028742;28;20057;-84
2022/06/12 09:41:18;;;;;;;3.55;2.85;;;;;;;25.88;33.49;99746.66;5051430;28;20064;-83
2022/06/12 09:43:56;;;;;;;4.82;3.15;;;;;;;25.72;33.93;99750.25;5053490;28;20026;-82
2022/06/12 09:46:35;;;;;;;5.90;2.83;;;;;;;25.74;33.93;99743.00;5050570;28;20049;-83
2022/06/12 09:49:24;;;;;;;3.72;2.72;;;;;;;25.90;33.20;99747.44;5041885;28;20065;-87
2022/06/12 09:52:06;;;;;;;2.80;2.60;;;;;;;26.22;32.86;99740.09;5051605;28;20045;-85
2022/06/12 09:54:41;;;;;;;3.00;2.80;;;;;;;26.03;33.38;99740.38;5031776;28;20725;-85
2022/06/12 09:57:18;;;;;;;4.00;2.85;;;;;;;25.68;33.98;99743.41;5030929;28;20053;-84
2022/06/12 09:59:55;;;;;;;5.57;2.92;;;;;;;24.94;34.53;99704.97;5021001;28;20055;-85
2022/06/12 10:03:02;;;;;;;3.17;2.97;;;;;;;24.90;35.17;99739.97;5016081;28;20041;-84
2022/06/12 10:05:45;;;;;;;2.90;2.70;;;;;;;24.89;34.71;99719.56;5005900;28;20286;-86
2022/06/12 10:08:24;;;;;;;;;;;;;;;25.18;34.43;99735.69;5018818;28;20077;-85
2022/06/12 10:10:57;;;;;;;6.50;3.15;;;;;;;25.65;33.77;99732.88;5014238;28;19925;-83
2022/06/12 10:13:34;;;;;;;6.55;3.13;;;;;;;25.91;33.37;99709.88;5014153;28;20053;-84
2022/06/12 10:16:10;;;;;;;4.97;3.00;;;;;;;26.33;32.42;99724.19;5017454;28;20102;-88
2022/06/12 10:18:46;;;;;;;4.93;3.13;;;;;;;26.69;32.12;99719.22;5013089;28;20402;-83
2022/06/12 10:21:18;;;;;;;4.63;3.00;;;;;;;26.73;31.59;99705.53;5017385;28;20136;-84
2022/06/12 10:23:45;;;;;;;5.03;2.70;;;;;;;26.60;31.66;99723.38;5017384;28;20421;-82
2022/06/12 10:26:23;;;;;;;4.70;2.90;;;;;;;26.22;32.47;99699.03;5018581;28;20053;-85
2022/06/12 10:29:24;;;;;;;4.40;2.97;;;;;;;26.32;32.32;99713.56;5021073;28;20049;-84
2022/06/12 10:31:56;;;;;;;3.85;2.80;;;;;;;26.25;32.13;99714.94;5018615;28;20045;-88
2022/06/12 10:34:48;;;;;;;5.95;2.88;;;;;;;26.15;32.17;99701.25;5022841;28;20083;-89
2022/06/12 10:37:19;;;;;;;3.72;2.80;;;;;;;26.30;32.14;99710.97;5010922;28;20057;-87
2022/06/12 10:40:27;;;;;;;4.37;3.07;;;;;;;25.88;32.68;99702.06;5012639;28;20050;-84
2022/06/12 10:43:05;;;;;;;3.83;2.65;;;;;;;25.59;33.25;99721.69;5020036;28;20053;-84
2022/06/12 10:45:36;;;;;;;3.08;2.58;;;;;;;25.29;33.28;99696.69;5032339;28;20104;-89
2022/06/12 10:48:25;;;;;;;3.67;3.00;;;;;;;24.96;33.76;99664.81;5024924;28;20071;-85
2022/06/12 10:50:55;;;;;;;8.32;3.67;;;;;;;25.14;33.22;99684.22;5013915;28;20073;-85
2022/06/12 10:53:24;;;;;;;3.15;2.95;;;;;;;25.46;33.25;99701.03;5028650;28;20551;-83
2022/06/12 10:55:59;;;;;;;4.07;3.15;;;;;;;25.78;32.45;99694.66;5029004;28;20056;-84
2022/06/12 10:58:56;;;;;;;2.75;2.55;;;;;;;25.88;32.10;99699.38;5027167;28;20103;-85
2022/06/12 11:01:33;;;;;;;2.60;2.40;;;;;;;26.26;31.58;99703.25;5010701;28;20122;-84
2022/06/12 11:08:59;;;;;;;2.70;2.60;;;;;;;27.09;30.16;99684.41;5027945;28;20063;-84
2022/06/12 11:11:52;;;;;;;4.80;2.58;;;;;;;27.24;30.14;99695.97;5029931;28;20605;-85
2022/06/12 11:14:55;;;;;;;3.17;2.90;;;;;;;26.60;30.65;99679.66;5029404;28;20652;-86
2022/06/12 11:17:25;;;;;;;5.25;3.13;;;;;;;26.22;31.44;99693.69;5029587;28;20085;-86
2022/06/12 11:20:14;;;;;;;2.90;2.70;;;;;;;25.99;31.62;99685.31;5032744;28;20505;-86
2022/06/12 11:22:58;;;;;;;5.25;2.95;;;;;;;25.72;31.66;99674.50;5030351;28;20425;-86
2022/06/12 11:25:25;;;;;;;2.97;2.72;;;;;;;25.78;31.75;99681.28;5044380;28;20494;-86
2022/06/12 11:28:25;;;;;;;4.05;2.70;;;;;;;25.74;31.92;99684.13;5030628;28;20056;-86
2022/06/12 11:31:13;;;;;;;3.13;2.90;;;;;;;25.59;31.71;99671.72;5027882;28;20540;-85
2022/06/12 11:33:51;;;;;;;5.47;3.00;;;;;;;25.78;31.56;99678.63;5026879;28;20059;-86
2022/06/12 11:36:30;;;;;;;4.07;2.97;;;;;;;25.86;31.80;99665.63;5028879;28;20136;-86
2022/06/12 11:39:19;;;;;;;4.55;2.80;;;;;;;25.89;31.72;99676.16;5029154;28;20053;-86
2022/06/12 11:42:15;;;;;;;2.90;2.70;;;;;;;25.97;31.24;99667.66;5029516;28;20058;-86
2022/06/12 11:44:53;;;;;;;5.13;2.88;;;;;;;26.25;31.03;99672.09;5029945;28;20049;-86
2022/06/12 11:47:27;;;;;;;4.00;3.05;;;;;;;26.19;31.16;99643.88;5028406;28;20057;-84
2022/06/12 11:50:37;;;;;;;4.60;2.90;;;;;;;26.29;31.05;99631.63;5030974;28;20073;-84
2022/06/12 11:53:30;;;;;;;5.85;2.72;;;;;;;26.58;30.71;99666.38;5020172;28;20148;-85
2022/06/12 11:56:24;;;;;;;3.55;3.25;;;;;;;26.52;31.00;99658.69;5030314;28;20117;-85
2022/06/12 11:59:03;;;;;;;3.00;2.80;;;;;;;26.36;30.74;99619.56;5030851;28;20076;-85
2022/06/12 12:01:44;;;;;;;3.95;2.80;;;;;;;26.15;31.25;99650.41;5011565;28;20107;-86
2022/06/12 12:04:34;;;;;;;5.97;3.33;;;;;;;25.62;32.03;99625.22;5029876;28;20136;-85
2022/06/12 12:07:23;;;;;;;6.47;2.88;;;;;;;25.58;32.17;99645.09;5028233;28;20128;-85
2022/06/12 12:10:07;;;;;;;3.10;2.83;;;;;;;25.26;32.55;99643.44;5029686;28;20533;-85
2022/06/12 12:12:39;;;;;;;5.80;2.60;;;;;;;25.13;32.76;99637.94;5028685;28;20061;-85
2022/06/12 12:15:17;;;;;;;3.92;2.80;;;;;;;25.03;32.83;99627.91;5030055;28;20049;-85
2022/06/12 12:17:48;;;;;;;3.25;2.80;;;;;;;25.07;33.03;99626.78;5028004;28;20053;-85
2022/06/12 12:20:29;;;;;;;3.92;2.75;;;;;;;25.25;32.66;99632.84;5029990;28;20049;-87
2022/06/12 12:23:03;;;;;;;4.20;2.65;;;;;;;25.12;33.05;99612.19;5028145;28;20157;-86
2022/06/12 12:25:45;;;;;;;5.95;4.72;;;;;;;25.13;32.90;99613.91;5011978;28;20053;-85
2022/06/12 12:28:28;;;;;;;2.97;2.67;;;;;;;25.11;32.63;99628.31;5029179;28;20057;-85